sensor_id;sensor_type;location;lat;lon;timestamp;P1;P2;P0
33507;PMS7003;25568;37.410;-122.096;2023-08-31T00:01:41;7.00;6.25;5.00
33507;PMS7003;25568;37.410;-122.096;2023-08-31T00:04:10;7.75;7.25;6.50
33507;PMS7003;25568;37.410;-122.096;2023-08-31T00:06:42;8.00;6.75;5.00
33507;PMS7003;25568;37.410;-122.096;2023-08-31T00:09:12;8.00;7.75;6.00
33507;PMS7003;25568;37.410;-122.096;2023-08-31T00:11:41;9.00;8.00;5.50
33507;PMS7003;25568;37.410;-122.096;2023-08-31T00:14:10;8.25;8.25;6.00
33507;PMS7003;25568;37.410;-122.096;2023-08-31T00:16:39;11.50;9.75;8.00
33507;PMS7003;25568;37.410;-122.096;2023-08-31T00:19:08;9.50;8.00;7.00
33507;PMS7003;25568;37.410;-122.096;2023-08-31T00:21:37;8.25;8.25;6.25
33507;PMS7003;25568;37.410;-122.096;2023-08-31T00:24:08;10.25;9.25;7.00
33507;PMS7003;25568;37.410;-122.096;2023-08-31T00:26:37;10.75;10.00;7.75
33507;PMS7003;25568;37.410;-122.096;2023-08-31T00:29:08;12.50;10.75;9.00
33507;PMS7003;25568;37.410;-122.096;2023-08-31T00:31:40;10.00;8.75;7.00
33507;PMS7003;25568;37.410;-122.096;2023-08-31T00:34:10;11.50;9.75;8.25
33507;PMS7003;25568;37.410;-122.096;2023-08-31T00:36:40;10.00;9.00;7.00
33507;PMS7003;25568;37.410;-122.096;2023-08-31T00:39:11;8.75;7.75;6.25
33507;PMS7003;25568;37.410;-122.096;2023-08-31T00:41:40;10.00;9.25;7.00
33507;PMS7003;25568;37.410;-122.096;2023-08-31T00:44:10;9.25;9.00;7.00
33507;PMS7003;25568;37.410;-122.096;2023-08-31T00:46:40;7.75;7.00;6.00
33507;PMS7003;25568;37.410;-122.096;2023-08-31T00:49:09;6.25;5.25;5.00
33507;PMS7003;25568;37.410;-122.096;2023-08-31T00:51:40;8.50;7.00;5.00
33507;PMS7003;25568;37.410;-122.096;2023-08-31T00:54:16;6.50;6.00;5.00
33507;PMS7003;25568;37.410;-122.096;2023-08-31T00:56:48;7.00;7.00;6.00
33507;PMS7003;25568;37.410;-122.096;2023-08-31T00:59:23;8.00;6.75;5.75
33507;PMS7003;25568;37.410;-122.096;2023-08-31T01:01:55;7.00;7.00;5.00
33507;PMS7003;25568;37.410;-122.096;2023-08-31T01:04:32;6.75;6.75;5.25
33507;PMS7003;25568;37.410;-122.096;2023-08-31T01:07:11;7.25;7.25;6.00
33507;PMS7003;25568;37.410;-122.096;2023-08-31T01:09:52;7.50;7.00;5.25
33507;PMS7003;25568;37.410;-122.096;2023-08-31T01:12:34;6.75;6.25;5.25
33507;PMS7003;25568;37.410;-122.096;2023-08-31T01:15:09;7.25;6.75;5.25
33507;PMS7003;25568;37.410;-122.096;2023-08-31T01:17:57;9.00;9.00;8.00
33507;PMS7003;25568;37.410;-122.096;2023-08-31T01:20:31;9.00;9.00;6.75
33507;PMS7003;25568;37.410;-122.096;2023-08-31T01:23:06;11.00;10.75;8.50
33507;PMS7003;25568;37.410;-122.096;2023-08-31T01:25:40;9.75;9.25;7.25
33507;PMS7003;25568;37.410;-122.096;2023-08-31T01:28:10;9.75;9.50;8.00
33507;PMS7003;25568;37.410;-122.096;2023-08-31T01:30:42;12.50;11.50;9.75
33507;PMS7003;25568;37.410;-122.096;2023-08-31T01:33:13;10.00;10.00;7.75
33507;PMS7003;25568;37.410;-122.096;2023-08-31T01:35:45;10.50;10.50;9.00
33507;PMS7003;25568;37.410;-122.096;2023-08-31T01:38:21;13.00;13.00;9.50
33507;PMS7003;25568;37.410;-122.096;2023-08-31T01:40:59;13.00;12.00;9.00
33507;PMS7003;25568;37.410;-122.096;2023-08-31T01:43:34;15.50;13.00;10.00
33507;PMS7003;25568;37.410;-122.096;2023-08-31T01:46:05;14.75;14.00;11.00
33507;PMS7003;25568;37.410;-122.096;2023-08-31T01:48:38;14.25;13.25;10.00
33507;PMS7003;25568;37.410;-122.096;2023-08-31T01:51:08;14.00;10.50;8.75
33507;PMS7003;25568;37.410;-122.096;2023-08-31T01:53:39;13.25;12.50;9.50
33507;PMS7003;25568;37.410;-122.096;2023-08-31T01:56:12;11.25;9.75;8.50
33507;PMS7003;25568;37.410;-122.096;2023-08-31T01:58:42;9.75;9.25;8.00
33507;PMS7003;25568;37.410;-122.096;2023-08-31T02:01:12;12.25;12.00;10.00
33507;PMS7003;25568;37.410;-122.096;2023-08-31T02:03:44;16.00;13.50;11.25
33507;PMS7003;25568;37.410;-122.096;2023-08-31T02:06:13;16.75;15.25;11.00
33507;PMS7003;25568;37.410;-122.096;2023-08-31T02:08:43;19.25;19.00;14.00
33507;PMS7003;25568;37.410;-122.096;2023-08-31T02:11:15;18.00;16.50;12.50
33507;PMS7003;25568;37.410;-122.096;2023-08-31T02:13:44;17.00;16.50;12.75
33507;PMS7003;25568;37.410;-122.096;2023-08-31T02:16:14;17.75;14.00;10.00
33507;PMS7003;25568;37.410;-122.096;2023-08-31T02:18:42;19.25;16.25;12.00
33507;PMS7003;25568;37.410;-122.096;2023-08-31T02:21:11;16.00;14.50;10.50
33507;PMS7003;25568;37.410;-122.096;2023-08-31T02:23:41;14.00;13.25;10.00
33507;PMS7003;25568;37.410;-122.096;2023-08-31T02:26:13;16.50;15.00;12.00
33507;PMS7003;25568;37.410;-122.096;2023-08-31T02:28:44;16.50;15.50;11.00
33507;PMS7003;25568;37.410;-122.096;2023-08-31T02:31:14;14.75;14.75;11.75
33507;PMS7003;25568;37.410;-122.096;2023-08-31T02:33:47;18.25;17.00;10.50
33507;PMS7003;25568;37.410;-122.096;2023-08-31T02:36:18;13.50;12.75;10.75
33507;PMS7003;25568;37.410;-122.096;2023-08-31T02:38:48;15.50;14.75;12.00
33507;PMS7003;25568;37.410;-122.096;2023-08-31T02:41:20;13.50;12.75;9.00
33507;PMS7003;25568;37.410;-122.096;2023-08-31T02:43:50;17.25;16.00;12.25
33507;PMS7003;25568;37.410;-122.096;2023-08-31T02:46:20;13.25;10.75;9.75
33507;PMS7003;25568;37.410;-122.096;2023-08-31T02:48:49;14.25;13.50;11.00
33507;PMS7003;25568;37.410;-122.096;2023-08-31T02:51:19;16.25;14.25;11.25
33507;PMS7003;25568;37.410;-122.096;2023-08-31T02:53:49;16.00;15.00;11.50
33507;PMS7003;25568;37.410;-122.096;2023-08-31T02:56:20;16.50;15.25;12.00
33507;PMS7003;25568;37.410;-122.096;2023-08-31T02:58:50;14.00;13.00;10.25
33507;PMS7003;25568;37.410;-122.096;2023-08-31T03:01:19;11.00;11.00;8.75
33507;PMS7003;25568;37.410;-122.096;2023-08-31T03:03:49;9.50;9.50;7.75
33507;PMS7003;25568;37.410;-122.096;2023-08-31T03:06:18;7.00;6.75;5.75
33507;PMS7003;25568;37.410;-122.096;2023-08-31T03:08:47;10.00;7.00;6.00
33507;PMS7003;25568;37.410;-122.096;2023-08-31T03:11:16;9.00;8.75;6.75
33507;PMS7003;25568;37.410;-122.096;2023-08-31T03:13:47;5.75;5.00;5.00
33507;PMS7003;25568;37.410;-122.096;2023-08-31T03:16:16;6.25;6.00;5.00
33507;PMS7003;25568;37.410;-122.096;2023-08-31T03:18:45;5.00;4.25;3.75
33507;PMS7003;25568;37.410;-122.096;2023-08-31T03:21:14;6.00;5.25;4.00
33507;PMS7003;25568;37.410;-122.096;2023-08-31T03:23:43;4.00;4.00;3.50
33507;PMS7003;25568;37.410;-122.096;2023-08-31T03:26:12;4.75;4.75;4.00
33507;PMS7003;25568;37.410;-122.096;2023-08-31T03:28:41;8.00;5.50;4.50
33507;PMS7003;25568;37.410;-122.096;2023-08-31T03:31:12;4.75;4.75;3.75
33507;PMS7003;25568;37.410;-122.096;2023-08-31T03:33:41;5.50;5.50;4.50
33507;PMS7003;25568;37.410;-122.096;2023-08-31T03:36:10;6.50;5.00;4.00
33507;PMS7003;25568;37.410;-122.096;2023-08-31T03:38:39;5.75;5.00;4.00
33507;PMS7003;25568;37.410;-122.096;2023-08-31T03:41:08;7.00;6.00;5.50
33507;PMS7003;25568;37.410;-122.096;2023-08-31T03:43:37;7.25;5.75;5.50
33507;PMS7003;25568;37.410;-122.096;2023-08-31T03:46:06;7.50;5.75;4.50
33507;PMS7003;25568;37.410;-122.096;2023-08-31T03:48:37;6.00;5.25;4.25
33507;PMS7003;25568;37.410;-122.096;2023-08-31T03:51:06;6.75;6.00;5.00
33507;PMS7003;25568;37.410;-122.096;2023-08-31T03:53:35;5.00;5.00;4.25
33507;PMS7003;25568;37.410;-122.096;2023-08-31T03:56:05;7.75;6.75;4.75
33507;PMS7003;25568;37.410;-122.096;2023-08-31T03:58:34;6.25;5.00;5.00
33507;PMS7003;25568;37.410;-122.096;2023-08-31T04:01:03;6.50;6.50;5.50
33507;PMS7003;25568;37.410;-122.096;2023-08-31T04:03:32;5.50;5.25;4.25
33507;PMS7003;25568;37.410;-122.096;2023-08-31T04:06:03;5.25;5.25;4.75
33507;PMS7003;25568;37.410;-122.096;2023-08-31T04:08:33;5.50;5.50;4.75
33507;PMS7003;25568;37.410;-122.096;2023-08-31T04:11:02;8.25;6.25;4.75
33507;PMS7003;25568;37.410;-122.096;2023-08-31T04:13:31;10.00;8.00;6.50
33507;PMS7003;25568;37.410;-122.096;2023-08-31T04:16:00;8.67;7.00;6.00
33507;PMS7003;25568;37.410;-122.096;2023-08-31T04:18:32;7.50;5.25;4.25
33507;PMS7003;25568;37.410;-122.096;2023-08-31T04:21:01;8.50;8.50;6.50
33507;PMS7003;25568;37.410;-122.096;2023-08-31T04:23:31;9.00;8.00;6.00
33507;PMS7003;25568;37.410;-122.096;2023-08-31T04:26:02;9.50;9.00;7.25
33507;PMS7003;25568;37.410;-122.096;2023-08-31T04:28:39;9.75;9.00;8.00
33507;PMS7003;25568;37.410;-122.096;2023-08-31T04:31:08;10.00;9.75;7.75
33507;PMS7003;25568;37.410;-122.096;2023-08-31T04:33:37;9.75;9.00;7.00
33507;PMS7003;25568;37.410;-122.096;2023-08-31T04:36:09;10.25;10.00;8.00
33507;PMS7003;25568;37.410;-122.096;2023-08-31T04:38:38;12.00;10.75;8.00
33507;PMS7003;25568;37.410;-122.096;2023-08-31T04:41:06;14.25;13.00;10.00
33507;PMS7003;25568;37.410;-122.096;2023-08-31T04:43:35;11.00;9.00;8.00
33507;PMS7003;25568;37.410;-122.096;2023-08-31T04:46:05;12.67;12.33;8.67
33507;PMS7003;25568;37.410;-122.096;2023-08-31T04:48:36;12.00;11.00;9.00
33507;PMS7003;25568;37.410;-122.096;2023-08-31T04:51:05;15.33;13.33;10.00
33507;PMS7003;25568;37.410;-122.096;2023-08-31T04:54:31;14.67;13.00;10.67
33507;PMS7003;25568;37.410;-122.096;2023-08-31T04:56:30;9.75;9.25;7.00
33507;PMS7003;25568;37.410;-122.096;2023-08-31T04:59:00;8.50;7.00;6.00
33507;PMS7003;25568;37.410;-122.096;2023-08-31T05:01:30;14.00;12.00;10.00
33507;PMS7003;25568;37.410;-122.096;2023-08-31T05:03:59;10.00;9.67;7.67
33507;PMS7003;25568;37.410;-122.096;2023-08-31T05:06:31;11.00;10.33;8.67
33507;PMS7003;25568;37.410;-122.096;2023-08-31T05:09:00;13.00;11.00;9.00
33507;PMS7003;25568;37.410;-122.096;2023-08-31T05:11:29;13.33;12.00;9.67
33507;PMS7003;25568;37.410;-122.096;2023-08-31T05:13:59;15.00;14.67;10.00
33507;PMS7003;25568;37.410;-122.096;2023-08-31T05:16:28;16.00;14.00;11.00
33507;PMS7003;25568;37.410;-122.096;2023-08-31T05:18:57;12.00;10.00;5.00
33507;PMS7003;25568;37.410;-122.096;2023-08-31T05:21:27;17.67;13.00;10.00
33507;PMS7003;25568;37.410;-122.096;2023-08-31T05:23:58;14.00;11.33;8.67
33507;PMS7003;25568;37.410;-122.096;2023-08-31T05:26:30;18.00;12.33;10.00
33507;PMS7003;25568;37.410;-122.096;2023-08-31T05:28:59;12.67;12.33;9.33
33507;PMS7003;25568;37.410;-122.096;2023-08-31T05:31:29;13.00;11.67;9.00
33507;PMS7003;25568;37.410;-122.096;2023-08-31T05:33:59;15.67;13.67;11.00
33507;PMS7003;25568;37.410;-122.096;2023-08-31T05:36:28;13.33;11.00;9.00
33507;PMS7003;25568;37.410;-122.096;2023-08-31T05:38:59;13.00;12.67;11.00
33507;PMS7003;25568;37.410;-122.096;2023-08-31T05:41:29;13.33;11.67;9.33
33507;PMS7003;25568;37.410;-122.096;2023-08-31T05:43:58;13.33;10.00;8.00
33507;PMS7003;25568;37.410;-122.096;2023-08-31T05:46:27;14.00;13.00;10.00
33507;PMS7003;25568;37.410;-122.096;2023-08-31T05:48:56;12.00;11.00;9.33
33507;PMS7003;25568;37.410;-122.096;2023-08-31T05:51:25;12.67;12.00;8.67
33507;PMS7003;25568;37.410;-122.096;2023-08-31T05:53:55;12.67;11.33;9.00
33507;PMS7003;25568;37.410;-122.096;2023-08-31T05:56:26;11.00;10.00;7.00
33507;PMS7003;25568;37.410;-122.096;2023-08-31T05:58:55;9.33;9.33;8.33
33507;PMS7003;25568;37.410;-122.096;2023-08-31T06:01:24;11.33;10.67;7.67
33507;PMS7003;25568;37.410;-122.096;2023-08-31T06:03:54;13.00;10.00;8.00
33507;PMS7003;25568;37.410;-122.096;2023-08-31T06:06:23;11.00;10.00;9.00
33507;PMS7003;25568;37.410;-122.096;2023-08-31T06:08:55;12.67;10.67;9.00
33507;PMS7003;25568;37.410;-122.096;2023-08-31T06:11:24;10.67;9.33;8.00
33507;PMS7003;25568;37.410;-122.096;2023-08-31T06:14:00;11.00;10.33;9.00
33507;PMS7003;25568;37.410;-122.096;2023-08-31T06:16:29;9.67;9.00;8.00
33507;PMS7003;25568;37.410;-122.096;2023-08-31T06:18:58;11.33;10.00;7.67
33507;PMS7003;25568;37.410;-122.096;2023-08-31T06:21:28;11.00;11.00;9.33
33507;PMS7003;25568;37.410;-122.096;2023-08-31T06:23:57;11.00;11.00;9.33
33507;PMS7003;25568;37.410;-122.096;2023-08-31T06:26:29;11.00;11.00;8.67
33507;PMS7003;25568;37.410;-122.096;2023-08-31T06:28:59;10.00;9.00;8.00
33507;PMS7003;25568;37.410;-122.096;2023-08-31T06:31:29;11.00;10.00;8.00
33507;PMS7003;25568;37.410;-122.096;2023-08-31T06:33:58;12.00;10.00;8.00
33507;PMS7003;25568;37.410;-122.096;2023-08-31T06:36:28;9.25;9.00;8.00
33507;PMS7003;25568;37.410;-122.096;2023-08-31T06:38:56;9.00;9.00;7.33
33507;PMS7003;25568;37.410;-122.096;2023-08-31T06:41:25;12.67;10.67;8.00
33507;PMS7003;25568;37.410;-122.096;2023-08-31T06:43:56;11.75;10.75;7.25
33507;PMS7003;25568;37.410;-122.096;2023-08-31T06:46:30;10.00;9.00;8.00
33507;PMS7003;25568;37.410;-122.096;2023-08-31T06:49:03;7.67;7.33;4.67
33507;PMS7003;25568;37.410;-122.096;2023-08-31T06:51:32;10.33;10.00;8.33
33507;PMS7003;25568;37.410;-122.096;2023-08-31T06:54:02;9.00;8.25;7.00
33507;PMS7003;25568;37.410;-122.096;2023-08-31T06:56:32;11.00;8.00;7.00
33507;PMS7003;25568;37.410;-122.096;2023-08-31T06:59:03;11.50;10.75;8.00
33507;PMS7003;25568;37.410;-122.096;2023-08-31T07:01:32;9.00;8.00;6.25
33507;PMS7003;25568;37.410;-122.096;2023-08-31T07:04:01;9.75;9.00;7.50
33507;PMS7003;25568;37.410;-122.096;2023-08-31T07:06:33;11.00;10.33;9.00
33507;PMS7003;25568;37.410;-122.096;2023-08-31T07:09:02;11.00;9.25;8.25
33507;PMS7003;25568;37.410;-122.096;2023-08-31T07:11:34;10.75;9.75;7.75
33507;PMS7003;25568;37.410;-122.096;2023-08-31T07:14:07;10.50;8.75;7.00
33507;PMS7003;25568;37.410;-122.096;2023-08-31T07:16:36;10.00;10.00;8.00
33507;PMS7003;25568;37.410;-122.096;2023-08-31T07:19:05;9.25;8.00;6.75
33507;PMS7003;25568;37.410;-122.096;2023-08-31T07:21:35;7.33;6.67;6.33
33507;PMS7003;25568;37.410;-122.096;2023-08-31T07:24:04;6.75;6.00;4.00
33507;PMS7003;25568;37.410;-122.096;2023-08-31T07:26:37;8.33;7.67;6.00
33507;PMS7003;25568;37.410;-122.096;2023-08-31T07:29:07;3.50;2.00;0.75
33507;PMS7003;25568;37.410;-122.096;2023-08-31T07:31:36;10.25;9.25;6.75
33507;PMS7003;25568;37.410;-122.096;2023-08-31T07:34:05;10.50;9.00;7.00
33507;PMS7003;25568;37.410;-122.096;2023-08-31T07:36:35;10.50;9.25;7.50
33507;PMS7003;25568;37.410;-122.096;2023-08-31T07:39:04;10.50;10.00;7.75
33507;PMS7003;25568;37.410;-122.096;2023-08-31T07:41:32;8.50;8.00;6.50
33507;PMS7003;25568;37.410;-122.096;2023-08-31T07:44:02;9.00;8.00;7.00
33507;PMS7003;25568;37.410;-122.096;2023-08-31T07:46:36;10.00;9.25;7.25
33507;PMS7003;25568;37.410;-122.096;2023-08-31T07:49:05;9.00;7.50;6.50
33507;PMS7003;25568;37.410;-122.096;2023-08-31T07:51:34;9.00;6.00;5.00
33507;PMS7003;25568;37.410;-122.096;2023-08-31T07:54:03;9.00;8.00;6.75
33507;PMS7003;25568;37.410;-122.096;2023-08-31T07:56:32;11.00;10.00;8.50
33507;PMS7003;25568;37.410;-122.096;2023-08-31T07:59:01;12.25;8.75;6.75
33507;PMS7003;25568;37.410;-122.096;2023-08-31T08:01:30;8.25;7.25;5.75
33507;PMS7003;25568;37.410;-122.096;2023-08-31T08:04:01;10.25;9.25;7.75
33507;PMS7003;25568;37.410;-122.096;2023-08-31T08:06:31;10.00;8.25;8.00
33507;PMS7003;25568;37.410;-122.096;2023-08-31T08:09:14;9.00;8.50;6.75
33507;PMS7003;25568;37.410;-122.096;2023-08-31T08:11:43;7.75;6.75;6.00
33507;PMS7003;25568;37.410;-122.096;2023-08-31T08:14:12;6.00;6.00;5.00
33507;PMS7003;25568;37.410;-122.096;2023-08-31T08:16:41;7.75;7.50;5.25
33507;PMS7003;25568;37.410;-122.096;2023-08-31T08:19:12;9.00;8.25;7.00
33507;PMS7003;25568;37.410;-122.096;2023-08-31T08:21:41;6.75;6.00;4.50
33507;PMS7003;25568;37.410;-122.096;2023-08-31T08:24:10;9.00;7.00;6.00
33507;PMS7003;25568;37.410;-122.096;2023-08-31T08:26:39;7.25;6.25;6.00
33507;PMS7003;25568;37.410;-122.096;2023-08-31T08:29:08;9.00;8.50;6.75
33507;PMS7003;25568;37.410;-122.096;2023-08-31T08:31:37;7.75;7.75;7.00
33507;PMS7003;25568;37.410;-122.096;2023-08-31T08:34:09;8.50;7.50;5.75
33507;PMS7003;25568;37.410;-122.096;2023-08-31T08:36:39;6.00;6.00;5.00
33507;PMS7003;25568;37.410;-122.096;2023-08-31T08:39:08;10.25;8.50;7.00
33507;PMS7003;25568;37.410;-122.096;2023-08-31T08:41:37;10.00;7.00;6.00
33507;PMS7003;25568;37.410;-122.096;2023-08-31T08:44:08;8.75;7.75;6.75
33507;PMS7003;25568;37.410;-122.096;2023-08-31T08:46:38;7.25;7.00;5.25
33507;PMS7003;25568;37.410;-122.096;2023-08-31T08:49:07;7.25;6.50;4.25
33507;PMS7003;25568;37.410;-122.096;2023-08-31T08:51:39;7.00;6.75;4.75
33507;PMS7003;25568;37.410;-122.096;2023-08-31T08:54:09;9.00;7.50;5.75
33507;PMS7003;25568;37.410;-122.096;2023-08-31T08:56:37;7.75;7.75;6.00
33507;PMS7003;25568;37.410;-122.096;2023-08-31T08:59:06;8.00;7.00;6.00
33507;PMS7003;25568;37.410;-122.096;2023-08-31T09:01:39;12.25;8.00;7.00
33507;PMS7003;25568;37.410;-122.096;2023-08-31T09:04:09;9.00;6.75;5.00
33507;PMS7003;25568;37.410;-122.096;2023-08-31T09:06:40;6.75;6.75;6.00
33507;PMS7003;25568;37.410;-122.096;2023-08-31T09:09:09;7.25;6.25;5.50
33507;PMS7003;25568;37.410;-122.096;2023-08-31T09:11:38;9.00;8.00;7.00
33507;PMS7003;25568;37.410;-122.096;2023-08-31T09:14:20;7.25;6.25;6.00
33507;PMS7003;25568;37.410;-122.096;2023-08-31T09:16:49;5.75;5.75;5.25
33507;PMS7003;25568;37.410;-122.096;2023-08-31T09:19:19;7.50;6.50;5.50
33507;PMS7003;25568;37.410;-122.096;2023-08-31T09:21:52;7.75;7.75;5.75
33507;PMS7003;25568;37.410;-122.096;2023-08-31T09:24:23;7.00;6.75;6.00
33507;PMS7003;25568;37.410;-122.096;2023-08-31T09:26:53;7.25;6.75;5.25
33507;PMS7003;25568;37.410;-122.096;2023-08-31T09:29:24;7.00;6.00;5.00
33507;PMS7003;25568;37.410;-122.096;2023-08-31T09:31:53;7.75;6.25;5.50
33507;PMS7003;25568;37.410;-122.096;2023-08-31T09:34:32;7.00;7.00;5.75
33507;PMS7003;25568;37.410;-122.096;2023-08-31T09:37:06;7.25;5.75;5.00
33507;PMS7003;25568;37.410;-122.096;2023-08-31T09:39:37;8.00;8.00;6.00
33507;PMS7003;25568;37.410;-122.096;2023-08-31T09:42:07;6.25;6.00;5.00
33507;PMS7003;25568;37.410;-122.096;2023-08-31T09:44:39;6.75;6.25;6.00
33507;PMS7003;25568;37.410;-122.096;2023-08-31T09:47:11;6.00;5.50;5.00
33507;PMS7003;25568;37.410;-122.096;2023-08-31T09:49:42;6.75;6.75;5.75
33507;PMS7003;25568;37.410;-122.096;2023-08-31T09:52:13;7.75;7.25;6.00
33507;PMS7003;25568;37.410;-122.096;2023-08-31T09:54:44;7.00;6.00;5.25
33507;PMS7003;25568;37.410;-122.096;2023-08-31T09:57:14;6.50;6.00;5.75
33507;PMS7003;25568;37.410;-122.096;2023-08-31T09:59:44;7.00;6.00;5.00
33507;PMS7003;25568;37.410;-122.096;2023-08-31T10:02:13;7.67;6.00;5.33
33507;PMS7003;25568;37.410;-122.096;2023-08-31T10:04:44;5.00;5.00;4.50
33507;PMS7003;25568;37.410;-122.096;2023-08-31T10:10:37;7.00;5.75;5.00
33507;PMS7003;25568;37.410;-122.096;2023-08-31T10:13:08;8.75;6.25;5.50
33507;PMS7003;25568;37.410;-122.096;2023-08-31T10:15:37;7.00;6.00;6.00
33507;PMS7003;25568;37.410;-122.096;2023-08-31T10:18:06;8.50;7.50;6.00
33507;PMS7003;25568;37.410;-122.096;2023-08-31T10:20:36;8.75;8.00;7.00
33507;PMS7003;25568;37.410;-122.096;2023-08-31T10:23:05;8.50;7.25;6.25
33507;PMS7003;25568;37.410;-122.096;2023-08-31T10:28:30;9.00;8.25;6.75
33507;PMS7003;25568;37.410;-122.096;2023-08-31T10:31:08;12.00;9.25;8.00
33507;PMS7003;25568;37.410;-122.096;2023-08-31T10:33:42;8.25;8.25;6.00
33507;PMS7003;25568;37.410;-122.096;2023-08-31T10:36:12;9.50;9.25;6.75
33507;PMS7003;25568;37.410;-122.096;2023-08-31T10:38:45;10.00;9.75;8.00
33507;PMS7003;25568;37.410;-122.096;2023-08-31T10:41:33;10.25;8.00;7.00
33507;PMS7003;25568;37.410;-122.096;2023-08-31T10:44:03;7.50;6.75;5.25
33507;PMS7003;25568;37.410;-122.096;2023-08-31T10:46:46;7.75;7.75;6.50
33507;PMS7003;25568;37.410;-122.096;2023-08-31T10:49:16;9.00;8.75;7.25
33507;PMS7003;25568;37.410;-122.096;2023-08-31T10:51:46;9.00;8.00;7.00
33507;PMS7003;25568;37.410;-122.096;2023-08-31T10:54:20;7.25;7.25;6.75
33507;PMS7003;25568;37.410;-122.096;2023-08-31T10:57:03;10.50;9.50;7.25
33507;PMS7003;25568;37.410;-122.096;2023-08-31T10:59:42;10.00;10.00;7.75
33507;PMS7003;25568;37.410;-122.096;2023-08-31T11:02:28;10.50;9.50;8.00
33507;PMS7003;25568;37.410;-122.096;2023-08-31T11:05:04;10.75;9.00;7.75
33507;PMS7003;25568;37.410;-122.096;2023-08-31T11:07:35;9.50;9.00;7.00
33507;PMS7003;25568;37.410;-122.096;2023-08-31T11:10:13;11.75;9.75;7.75
33507;PMS7003;25568;37.410;-122.096;2023-08-31T11:12:45;10.00;9.75;7.25
33507;PMS7003;25568;37.410;-122.096;2023-08-31T11:15:16;10.50;10.00;8.25
33507;PMS7003;25568;37.410;-122.096;2023-08-31T11:17:46;11.25;10.00;8.00
33507;PMS7003;25568;37.410;-122.096;2023-08-31T11:20:17;11.00;9.00;7.00
33507;PMS7003;25568;37.410;-122.096;2023-08-31T11:22:47;9.75;9.00;7.00
33507;PMS7003;25568;37.410;-122.096;2023-08-31T11:25:18;8.75;7.75;6.00
33507;PMS7003;25568;37.410;-122.096;2023-08-31T11:27:57;9.75;8.75;7.75
33507;PMS7003;25568;37.410;-122.096;2023-08-31T11:30:27;11.00;10.75;8.75
33507;PMS7003;25568;37.410;-122.096;2023-08-31T11:33:01;10.25;8.75;7.50
33507;PMS7003;25568;37.410;-122.096;2023-08-31T11:35:31;8.75;8.75;7.00
33507;PMS7003;25568;37.410;-122.096;2023-08-31T11:38:02;9.00;8.75;7.50
33507;PMS7003;25568;37.410;-122.096;2023-08-31T11:40:31;11.25;10.50;9.00
33507;PMS7003;25568;37.410;-122.096;2023-08-31T11:43:02;10.50;9.75;7.75
33507;PMS7003;25568;37.410;-122.096;2023-08-31T11:45:33;11.50;10.00;8.00
33507;PMS7003;25568;37.410;-122.096;2023-08-31T11:48:03;13.75;8.00;6.00
33507;PMS7003;25568;37.410;-122.096;2023-08-31T11:50:33;10.50;9.75;8.00
33507;PMS7003;25568;37.410;-122.096;2023-08-31T11:53:02;10.00;9.00;7.50
33507;PMS7003;25568;37.410;-122.096;2023-08-31T11:55:32;10.00;9.25;7.50
33507;PMS7003;25568;37.410;-122.096;2023-08-31T11:58:03;12.00;12.00;8.00
33507;PMS7003;25568;37.410;-122.096;2023-08-31T12:00:36;9.00;9.00;7.50
33507;PMS7003;25568;37.410;-122.096;2023-08-31T12:03:05;10.75;10.00;7.25
33507;PMS7003;25568;37.410;-122.096;2023-08-31T12:05:46;10.00;9.25;6.50
33507;PMS7003;25568;37.410;-122.096;2023-08-31T12:08:15;11.00;11.00;9.00
33507;PMS7003;25568;37.410;-122.096;2023-08-31T12:10:51;14.00;11.00;8.00
33507;PMS7003;25568;37.410;-122.096;2023-08-31T12:13:25;9.75;8.25;7.25
33507;PMS7003;25568;37.410;-122.096;2023-08-31T12:15:55;9.75;9.50;7.50
33507;PMS7003;25568;37.410;-122.096;2023-08-31T12:18:29;10.50;8.75;7.25
33507;PMS7003;25568;37.410;-122.096;2023-08-31T12:20:58;9.00;9.00;7.00
33507;PMS7003;25568;37.410;-122.096;2023-08-31T12:23:29;12.50;9.00;7.25
33507;PMS7003;25568;37.410;-122.096;2023-08-31T12:25:58;10.75;9.25;6.50
33507;PMS7003;25568;37.410;-122.096;2023-08-31T12:28:29;9.50;9.25;7.00
33507;PMS7003;25568;37.410;-122.096;2023-08-31T12:30:58;14.75;10.50;7.75
33507;PMS7003;25568;37.410;-122.096;2023-08-31T12:33:28;9.25;7.50;6.00
33507;PMS7003;25568;37.410;-122.096;2023-08-31T12:35:57;8.25;7.75;6.00
33507;PMS7003;25568;37.410;-122.096;2023-08-31T12:38:26;11.75;11.00;8.00
33507;PMS7003;25568;37.410;-122.096;2023-08-31T12:40:55;9.25;8.50;5.75
33507;PMS7003;25568;37.410;-122.096;2023-08-31T12:43:24;7.75;7.00;5.00
33507;PMS7003;25568;37.410;-122.096;2023-08-31T12:45:59;8.75;7.00;5.75
33507;PMS7003;25568;37.410;-122.096;2023-08-31T12:48:29;9.00;8.75;7.25
33507;PMS7003;25568;37.410;-122.096;2023-08-31T12:50:58;7.75;7.75;6.25
33507;PMS7003;25568;37.410;-122.096;2023-08-31T12:53:27;9.00;9.00;7.00
33507;PMS7003;25568;37.410;-122.096;2023-08-31T12:55:58;7.75;7.00;6.00
33507;PMS7003;25568;37.410;-122.096;2023-08-31T12:58:28;9.75;8.00;6.00
33507;PMS7003;25568;37.410;-122.096;2023-08-31T13:00:59;8.50;8.00;6.75
33507;PMS7003;25568;37.410;-122.096;2023-08-31T13:03:28;9.75;6.75;5.00
33507;PMS7003;25568;37.410;-122.096;2023-08-31T13:05:58;7.25;6.75;6.00
33507;PMS7003;25568;37.410;-122.096;2023-08-31T13:08:27;10.50;8.75;6.00
33507;PMS7003;25568;37.410;-122.096;2023-08-31T13:10:56;8.25;8.25;6.25
33507;PMS7003;25568;37.410;-122.096;2023-08-31T13:13:25;9.75;6.25;5.00
33507;PMS7003;25568;37.410;-122.096;2023-08-31T13:15:54;7.00;6.25;5.25
33507;PMS7003;25568;37.410;-122.096;2023-08-31T13:18:25;8.00;7.00;5.00
33507;PMS7003;25568;37.410;-122.096;2023-08-31T13:20:54;7.00;6.00;5.00
33507;PMS7003;25568;37.410;-122.096;2023-08-31T13:23:25;7.25;6.50;6.00
33507;PMS7003;25568;37.410;-122.096;2023-08-31T13:25:54;6.75;6.25;4.75
33507;PMS7003;25568;37.410;-122.096;2023-08-31T13:28:24;8.00;7.50;6.50
33507;PMS7003;25568;37.410;-122.096;2023-08-31T13:30:55;9.00;7.25;5.75
33507;PMS7003;25568;37.410;-122.096;2023-08-31T13:33:27;9.50;8.50;6.00
33507;PMS7003;25568;37.410;-122.096;2023-08-31T13:35:57;7.00;6.50;5.50
33507;PMS7003;25568;37.410;-122.096;2023-08-31T13:38:26;8.25;7.00;6.25
33507;PMS7003;25568;37.410;-122.096;2023-08-31T13:40:55;8.25;7.00;5.50
33507;PMS7003;25568;37.410;-122.096;2023-08-31T13:43:25;8.25;6.00;5.25
33507;PMS7003;25568;37.410;-122.096;2023-08-31T13:45:54;7.00;6.75;5.00
33507;PMS7003;25568;37.410;-122.096;2023-08-31T13:48:23;8.25;7.00;6.25
33507;PMS7003;25568;37.410;-122.096;2023-08-31T13:50:54;6.75;5.75;4.75
33507;PMS7003;25568;37.410;-122.096;2023-08-31T13:53:23;7.00;7.00;5.25
33507;PMS7003;25568;37.410;-122.096;2023-08-31T13:55:53;6.50;6.00;5.00
33507;PMS7003;25568;37.410;-122.096;2023-08-31T13:58:22;7.25;6.75;5.25
33507;PMS7003;25568;37.410;-122.096;2023-08-31T14:00:51;6.75;6.25;5.00
33507;PMS7003;25568;37.410;-122.096;2023-08-31T14:03:20;6.75;6.75;5.00